sensor_id;sensor_type;location;lat;lon;timestamp;pressure;altitude;pressure_sealevel;temperature;humidity
62697;BME280;48761;42.680;23.312;2022-09-13T00:02:03;94676.91;;;26.05;42.08
62697;BME280;48761;42.680;23.312;2022-09-13T00:04:29;94677.94;;;26.04;42.32
62697;BME280;48761;42.680;23.312;2022-09-13T00:06:55;94676.28;;;26.03;42.25
62697;BME280;48761;42.680;23.312;2022-09-13T00:09:21;94669.16;;;26.02;42.22
62697;BME280;48761;42.680;23.312;2022-09-13T00:11:47;94673.97;;;26.00;42.45
62697;BME280;48761;42.680;23.312;2022-09-13T00:14:16;94668.31;;;26.02;42.54
62697;BME280;48761;42.680;23.312;2022-09-13T00:16:42;94660.34;;;26.00;42.36
62697;BME280;48761;42.680;23.312;2022-09-13T00:19:11;94658.66;;;25.99;42.49
62697;BME280;48761;42.680;23.312;2022-09-13T00:21:36;94650.50;;;25.99;42.61
62697;BME280;48761;42.680;23.312;2022-09-13T00:24:03;94655.53;;;26.02;42.34
62697;BME280;48761;42.680;23.312;2022-09-13T00:26:28;94649.47;;;26.00;42.58
62697;BME280;48761;42.680;23.312;2022-09-13T00:28:57;94654.06;;;26.00;42.34
62697;BME280;48761;42.680;23.312;2022-09-13T00:31:24;94654.06;;;26.00;42.77
62697;BME280;48761;42.680;23.312;2022-09-13T00:33:51;94645.28;;;25.97;42.49
62697;BME280;48761;42.680;23.312;2022-09-13T00:36:17;94641.72;;;25.97;42.67
62697;BME280;48761;42.680;23.312;2022-09-13T00:38:44;94644.44;;;25.97;42.79
62697;BME280;48761;42.680;23.312;2022-09-13T00:41:15;94639.59;;;25.99;42.47
62697;BME280;48761;42.680;23.312;2022-09-13T00:44:01;94645.91;;;26.00;42.90
62697;BME280;48761;42.680;23.312;2022-09-13T00:46:43;94640.47;;;26.00;42.76
62697;BME280;48761;42.680;23.312;2022-09-13T00:49:19;94646.75;;;26.00;42.49
62697;BME280;48761;42.680;23.312;2022-09-13T00:51:53;94644.03;;;26.00;42.76
62697;BME280;48761;42.680;23.312;2022-09-13T00:54:22;94639.41;;;26.01;42.37
62697;BME280;48761;42.680;23.312;2022-09-13T00:56:54;94644.03;;;26.00;43.00
62697;BME280;48761;42.680;23.312;2022-09-13T00:59:27;94636.88;;;25.99;42.81
62697;BME280;48761;42.680;23.312;2022-09-13T01:01:55;94641.53;;;25.99;42.67
62697;BME280;48761;42.680;23.312;2022-09-13T01:04:25;94639.00;;;25.97;42.68
62697;BME280;48761;42.680;23.312;2022-09-13T01:06:54;94638.38;;;25.95;42.68
62697;BME280;48761;42.680;23.312;2022-09-13T01:09:22;94639.41;;;25.94;42.98
62697;BME280;48761;42.680;23.312;2022-09-13T01:11:55;94628.50;;;25.94;42.70
62697;BME280;48761;42.680;23.312;2022-09-13T01:14:23;94642.78;;;25.96;42.64
62697;BME280;48761;42.680;23.312;2022-09-13T01:16:51;94635.22;;;25.98;42.71
62697;BME280;48761;42.680;23.312;2022-09-13T01:19:17;94636.28;;;25.97;43.01
62697;BME280;48761;42.680;23.312;2022-09-13T01:30:18;94626.25;;;25.91;42.80
62697;BME280;48761;42.680;23.312;2022-09-13T01:33:01;94625.16;;;25.92;42.78
62697;BME280;48761;42.680;23.312;2022-09-13T01:38:12;94628.50;;;25.94;42.94
62697;BME280;48761;42.680;23.312;2022-09-13T01:40:55;94630.19;;;25.95;43.01
62697;BME280;48761;42.680;23.312;2022-09-13T01:46:21;94623.50;;;25.91;42.73
62697;BME280;48761;42.680;23.312;2022-09-13T01:51:43;94623.50;;;25.91;42.94
62697;BME280;48761;42.680;23.312;2022-09-13T01:57:15;94621.22;;;25.88;42.71
62697;BME280;48761;42.680;23.312;2022-09-13T02:00:09;94623.94;;;25.88;43.00
62697;BME280;48761;42.680;23.312;2022-09-13T02:05:49;94616.38;;;25.90;42.97
62697;BME280;48761;42.680;23.312;2022-09-13T02:08:24;94610.94;;;25.90;42.86
62697;BME280;48761;42.680;23.312;2022-09-13T02:11:05;94619.31;;;25.88;43.05
62697;BME280;48761;42.680;23.312;2022-09-13T02:13:57;94624.97;;;25.86;42.89
62697;BME280;48761;42.680;23.312;2022-09-13T02:16:39;94618.47;;;25.88;43.06
62697;BME280;48761;42.680;23.312;2022-09-13T02:19:13;94621.44;;;25.86;42.86
62697;BME280;48761;42.680;23.312;2022-09-13T02:21:43;94620.59;;;25.85;42.75
62697;BME280;48761;42.680;23.312;2022-09-13T02:24:18;94617.84;;;25.85;42.77
62697;BME280;48761;42.680;23.312;2022-09-13T02:26:51;94620.59;;;25.85;42.94
62697;BME280;48761;42.680;23.312;2022-09-13T02:29:19;94612.59;;;25.84;42.74
62697;BME280;48761;42.680;23.312;2022-09-13T02:31:55;94615.56;;;25.82;43.00
62697;BME280;48761;42.680;23.312;2022-09-13T02:34:39;94611.38;;;25.80;42.96
62697;BME280;48761;42.680;23.312;2022-09-13T02:37:08;94621.41;;;25.79;43.08
62697;BME280;48761;42.680;23.312;2022-09-13T02:39:36;94621.41;;;25.79;43.15
62697;BME280;48761;42.680;23.312;2022-09-13T02:42:28;94621.63;;;25.78;42.84
62697;BME280;48761;42.680;23.312;2022-09-13T02:44:56;94614.72;;;25.75;42.79
62697;BME280;48761;42.680;23.312;2022-09-13T02:47:52;94622.66;;;25.77;43.05
62697;BME280;48761;42.680;23.312;2022-09-13T02:53:25;94623.72;;;25.76;42.72
62697;BME280;48761;42.680;23.312;2022-09-13T03:01:15;94620.53;;;25.72;42.86
62697;BME280;48761;42.680;23.312;2022-09-13T03:03:41;94625.13;;;25.71;43.05
62697;BME280;48761;42.680;23.312;2022-09-13T03:06:07;94616.75;;;25.66;43.18
62697;BME280;48761;42.680;23.312;2022-09-13T03:08:33;94623.03;;;25.67;43.37
62697;BME280;48761;42.680;23.312;2022-09-13T03:11:18;94623.03;;;25.67;43.12
62697;BME280;48761;42.680;23.312;2022-09-13T03:14:06;94622.19;;;25.66;43.04
62697;BME280;48761;42.680;23.312;2022-09-13T03:17:53;94625.16;;;25.64;42.85
62697;BME280;48761;42.680;23.312;2022-09-13T03:22:51;94620.13;;;25.61;43.04
62697;BME280;48761;42.680;23.312;2022-09-13T03:30:49;94623.28;;;25.58;42.86
62697;BME280;48761;42.680;23.312;2022-09-13T03:33:31;94620.56;;;25.58;43.13
62697;BME280;48761;42.680;23.312;2022-09-13T03:38:53;94623.69;;;25.62;42.80
62697;BME280;48761;42.680;23.312;2022-09-13T03:41:24;94622.22;;;25.59;42.77
62697;BME280;48761;42.680;23.312;2022-09-13T03:43:56;94623.06;;;25.60;42.68
62697;BME280;48761;42.680;23.312;2022-09-13T03:46:30;94625.16;;;25.58;43.06
62697;BME280;48761;42.680;23.312;2022-09-13T03:49:05;94617.63;;;25.60;42.82
62697;BME280;48761;42.680;23.312;2022-09-13T03:51:32;94627.88;;;25.58;43.02
62697;BME280;48761;42.680;23.312;2022-09-13T03:54:04;94624.94;;;25.59;43.34
62697;BME280;48761;42.680;23.312;2022-09-13T03:56:31;94624.31;;;25.57;43.02
62697;BME280;48761;42.680;23.312;2022-09-13T03:58:59;94625.16;;;25.58;43.14
62697;BME280;48761;42.680;23.312;2022-09-13T04:01:25;94626.41;;;25.55;42.83
62697;BME280;48761;42.680;23.312;2022-09-13T04:03:52;94635.59;;;25.54;42.91
62697;BME280;48761;42.680;23.312;2022-09-13T04:06:18;94631.41;;;25.51;43.02
62697;BME280;48761;42.680;23.312;2022-09-13T04:08:44;94631.81;;;25.48;42.82
62697;BME280;48761;42.680;23.312;2022-09-13T04:11:10;94631.00;;;25.48;43.11
62697;BME280;48761;42.680;23.312;2022-09-13T04:13:37;94633.09;;;25.46;43.11
62697;BME280;48761;42.680;23.312;2022-09-13T04:16:04;94632.03;;;25.47;42.72
62697;BME280;48761;42.680;23.312;2022-09-13T04:18:31;94628.91;;;25.43;42.92
62697;BME280;48761;42.680;23.312;2022-09-13T04:20:58;94627.63;;;25.39;42.85
62697;BME280;48761;42.680;23.312;2022-09-13T04:23:26;94624.28;;;25.37;42.55
62697;BME280;48761;42.680;23.312;2022-09-13T04:26:02;94626.16;;;25.36;42.46
62697;BME280;48761;42.680;23.312;2022-09-13T04:28:29;94630.75;;;25.36;42.13
62697;BME280;48761;42.680;23.312;2022-09-13T04:30:55;94636.84;;;25.38;41.92
62697;BME280;48761;42.680;23.312;2022-09-13T04:33:23;94643.53;;;25.35;42.12
62697;BME280;48761;42.680;23.312;2022-09-13T04:35:56;94635.16;;;25.37;42.39
62697;BME280;48761;42.680;23.312;2022-09-13T04:38:22;94644.78;;;25.39;42.35
62697;BME280;48761;42.680;23.312;2022-09-13T04:40:52;94642.28;;;25.45;42.21
62697;BME280;48761;42.680;23.312;2022-09-13T04:43:18;94646.25;;;25.49;42.57
62697;BME280;48761;42.680;23.312;2022-09-13T04:45:44;94654.44;;;25.56;42.41
62697;BME280;48761;42.680;23.312;2022-09-13T04:48:09;94654.44;;;25.62;42.37
62697;BME280;48761;42.680;23.312;2022-09-13T04:50:35;94649.00;;;25.69;42.18
62697;BME280;48761;42.680;23.312;2022-09-13T04:53:01;94656.16;;;25.77;42.24
62697;BME280;48761;42.680;23.312;2022-09-13T04:55:27;94656.38;;;25.82;41.87
62697;BME280;48761;42.680;23.312;2022-09-13T04:57:53;94652.84;;;25.89;41.82
62697;BME280;48761;42.680;23.312;2022-09-13T05:00:19;94667.47;;;25.94;41.48
62697;BME280;48761;42.680;23.312;2022-09-13T05:02:45;94657.63;;;26.00;41.83
62697;BME280;48761;42.680;23.312;2022-09-13T05:05:11;94664.31;;;26.04;41.90
62697;BME280;48761;42.680;23.312;2022-09-13T05:07:37;94666.22;;;26.11;41.93
62697;BME280;48761;42.680;23.312;2022-09-13T05:10:03;94662.03;;;26.15;42.04
62697;BME280;48761;42.680;23.312;2022-09-13T05:12:29;94658.66;;;26.19;41.94
62697;BME280;48761;42.680;23.312;2022-09-13T05:14:54;94649.84;;;26.24;41.52
62697;BME280;48761;42.680;23.312;2022-09-13T05:17:20;94658.22;;;26.29;41.75
62697;BME280;48761;42.680;23.312;2022-09-13T05:19:46;94655.69;;;26.35;41.67
62697;BME280;48761;42.680;23.312;2022-09-13T05:22:12;94661.97;;;26.42;41.38
62697;BME280;48761;42.680;23.312;2022-09-13T05:24:38;94655.50;;;26.50;40.95
62697;BME280;48761;42.680;23.312;2022-09-13T05:27:04;94660.09;;;26.56;40.84
62697;BME280;48761;42.680;23.312;2022-09-13T05:29:30;94657.34;;;26.63;40.78
62697;BME280;48761;42.680;23.312;2022-09-13T05:31:56;94651.06;;;26.69;40.29
62697;BME280;48761;42.680;23.312;2022-09-13T05:34:21;94651.88;;;26.77;40.30
62697;BME280;48761;42.680;23.312;2022-09-13T05:36:47;94657.53;;;26.82;40.00
62697;BME280;48761;42.680;23.312;2022-09-13T05:39:14;94662.94;;;26.89;39.58
62697;BME280;48761;42.680;23.312;2022-09-13T05:41:40;94660.19;;;26.95;39.67
62697;BME280;48761;42.680;23.312;2022-09-13T05:44:06;94670.66;;;26.98;39.52
62697;BME280;48761;42.680;23.312;2022-09-13T05:46:32;94660.59;;;26.99;39.67
62697;BME280;48761;42.680;23.312;2022-09-13T05:48:58;94665.19;;;26.98;39.58
62697;BME280;48761;42.680;23.312;2022-09-13T05:51:24;94670.66;;;26.98;39.76
62697;BME280;48761;42.680;23.312;2022-09-13T05:53:51;94668.53;;;27.01;39.87
62697;BME280;48761;42.680;23.312;2022-09-13T05:56:28;94666.44;;;27.03;39.89
62697;BME280;48761;42.680;23.312;2022-09-13T05:58:55;94668.13;;;27.04;39.82
62697;BME280;48761;42.680;23.312;2022-09-13T06:01:23;94667.88;;;27.05;39.50
62697;BME280;48761;42.680;23.312;2022-09-13T06:03:50;94662.25;;;27.07;39.09
62697;BME280;48761;42.680;23.312;2022-09-13T06:06:17;94660.97;;;27.16;39.10
62697;BME280;48761;42.680;23.312;2022-09-13T06:08:43;94666.38;;;27.23;39.09
62697;BME280;48761;42.680;23.312;2022-09-13T06:11:11;94669.28;;;27.28;38.33
62697;BME280;48761;42.680;23.312;2022-09-13T06:13:37;94673.03;;;27.34;38.48
62697;BME280;48761;42.680;23.312;2022-09-13T06:16:06;94671.09;;;27.41;38.45
62697;BME280;48761;42.680;23.312;2022-09-13T06:18:33;94674.63;;;27.49;38.29
62697;BME280;48761;42.680;23.312;2022-09-13T06:21:05;94675.88;;;27.53;38.35
62697;BME280;48761;42.680;23.312;2022-09-13T06:23:31;94682.34;;;27.59;38.34
62697;BME280;48761;42.680;23.312;2022-09-13T06:26:07;94679.78;;;27.64;38.00
62697;BME280;48761;42.680;23.312;2022-09-13T06:28:33;94673.91;;;27.67;37.65
62697;BME280;48761;42.680;23.312;2022-09-13T06:31:08;94673.22;;;27.72;38.05
62697;BME280;48761;42.680;23.312;2022-09-13T06:33:35;94678.69;;;27.72;38.00
62697;BME280;48761;42.680;23.312;2022-09-13T06:36:04;94688.31;;;27.81;37.92
62697;BME280;48761;42.680;23.312;2022-09-13T06:38:30;94685.75;;;27.86;38.63
62697;BME280;48761;42.680;23.312;2022-09-13T06:43:33;94685.25;;;27.96;38.98
62697;BME280;48761;42.680;23.312;2022-09-13T06:46:04;94689.44;;;27.99;38.40
62697;BME280;48761;42.680;23.312;2022-09-13T06:48:31;94694.22;;;28.04;38.52
62697;BME280;48761;42.680;23.312;2022-09-13T06:51:02;94702.00;;;28.07;38.73
62697;BME280;48761;42.680;23.312;2022-09-13T06:53:29;94702.41;;;28.11;38.31
62697;BME280;48761;42.680;23.312;2022-09-13T06:56:32;94703.63;;;28.15;38.17
62697;BME280;48761;42.680;23.312;2022-09-13T06:58:54;94704.81;;;28.19;38.29
62697;BME280;48761;42.680;23.312;2022-09-13T07:01:23;94709.84;;;28.22;38.55
62697;BME280;48761;42.680;23.312;2022-09-13T07:03:52;94712.38;;;28.24;38.46
62697;BME280;48761;42.680;23.312;2022-09-13T07:06:23;94706.25;;;28.28;38.90
62697;BME280;48761;42.680;23.312;2022-09-13T07:08:50;94709.78;;;28.29;38.48
62697;BME280;48761;42.680;23.312;2022-09-13T07:11:17;94711.88;;;28.34;39.64
62697;BME280;48761;42.680;23.312;2022-09-13T07:13:54;94717.72;;;28.37;37.96
62697;BME280;48761;42.680;23.312;2022-09-13T07:16:23;94718.13;;;28.41;38.95
62697;BME280;48761;42.680;23.312;2022-09-13T07:18:53;94718.72;;;28.43;38.68
62697;BME280;48761;42.680;23.312;2022-09-13T07:21:20;94711.16;;;28.45;39.26
62697;BME280;48761;42.680;23.312;2022-09-13T07:23:46;94715.56;;;28.46;39.35
62697;BME280;48761;42.680;23.312;2022-09-13T07:26:13;94710.72;;;28.48;39.28
62697;BME280;48761;42.680;23.312;2022-09-13T07:28:43;94714.28;;;28.49;38.63
62697;BME280;48761;42.680;23.312;2022-09-13T07:31:16;94717.41;;;28.52;38.38
62697;BME280;48761;42.680;23.312;2022-09-13T07:33:43;94711.66;;;28.61;37.85
62697;BME280;48761;42.680;23.312;2022-09-13T07:36:10;94709.69;;;28.68;37.67
62697;BME280;48761;42.680;23.312;2022-09-13T07:38:38;94709.00;;;28.73;38.66
62697;BME280;48761;42.680;23.312;2022-09-13T07:41:05;94714.22;;;28.74;38.98
62697;BME280;48761;42.680;23.312;2022-09-13T07:43:32;94714.03;;;28.76;38.28
62697;BME280;48761;42.680;23.312;2022-09-13T07:46:09;94713.56;;;28.79;39.32
62697;BME280;48761;42.680;23.312;2022-09-13T07:48:37;94718.19;;;28.79;39.04
62697;BME280;48761;42.680;23.312;2022-09-13T07:51:09;94716.31;;;28.79;38.45
62697;BME280;48761;42.680;23.312;2022-09-13T07:53:37;94726.16;;;28.80;38.78
62697;BME280;48761;42.680;23.312;2022-09-13T07:58:32;94717.28;;;28.85;38.75
62697;BME280;48761;42.680;23.312;2022-09-13T08:03:53;94717.06;;;28.86;38.82
62697;BME280;48761;42.680;23.312;2022-09-13T08:06:20;94714.53;;;28.85;37.39
62697;BME280;48761;42.680;23.312;2022-09-13T08:08:46;94717.91;;;28.87;38.07
62697;BME280;48761;42.680;23.312;2022-09-13T08:11:16;94718.50;;;28.89;37.03
62697;BME280;48761;42.680;23.312;2022-09-13T08:13:43;94719.31;;;28.90;37.19
62697;BME280;48761;42.680;23.312;2022-09-13T08:16:09;94722.31;;;28.88;35.80
62697;BME280;48761;42.680;23.312;2022-09-13T08:18:35;94721.00;;;28.91;36.88
62697;BME280;48761;42.680;23.312;2022-09-13T08:21:01;94726.88;;;28.94;37.94
62697;BME280;48761;42.680;23.312;2022-09-13T08:23:27;94714.84;;;28.95;36.73
62697;BME280;48761;42.680;23.312;2022-09-13T08:25:53;94716.91;;;29.00;38.18
62697;BME280;48761;42.680;23.312;2022-09-13T08:28:20;94713.34;;;29.00;37.99
62697;BME280;48761;42.680;23.312;2022-09-13T08:30:47;94713.81;;;28.96;35.98
62697;BME280;48761;42.680;23.312;2022-09-13T08:33:13;94707.88;;;29.00;37.79
62697;BME280;48761;42.680;23.312;2022-09-13T08:35:40;94706.81;;;29.01;38.30
62697;BME280;48761;42.680;23.312;2022-09-13T08:38:06;94714.41;;;28.98;38.23
62697;BME280;48761;42.680;23.312;2022-09-13T08:40:44;94708.69;;;29.00;38.12
62697;BME280;48761;42.680;23.312;2022-09-13T08:46:44;94711.66;;;28.98;37.93
62697;BME280;48761;42.680;23.312;2022-09-13T08:49:15;94703.72;;;28.97;36.42
62697;BME280;48761;42.680;23.312;2022-09-13T08:51:50;94711.06;;;28.96;34.68
62697;BME280;48761;42.680;23.312;2022-09-13T08:54:18;94701.63;;;28.92;34.27
62697;BME280;48761;42.680;23.312;2022-09-13T08:56:52;94705.44;;;28.91;34.34
62697;BME280;48761;42.680;23.312;2022-09-13T09:04:46;94694.06;;;28.94;35.69
62697;BME280;48761;42.680;23.312;2022-09-13T09:07:18;94696.16;;;28.92;34.87
62697;BME280;48761;42.680;23.312;2022-09-13T09:12:35;94706.28;;;28.92;35.59
62697;BME280;48761;42.680;23.312;2022-09-13T09:15:23;94694.72;;;28.90;34.56
62697;BME280;48761;42.680;23.312;2022-09-13T09:20:36;94704.25;;;28.87;33.69
62697;BME280;48761;42.680;23.312;2022-09-13T09:23:21;94709.72;;;28.87;33.54
62697;BME280;48761;42.680;23.312;2022-09-13T09:25:56;94705.28;;;28.86;33.28
62697;BME280;48761;42.680;23.312;2022-09-13T09:28:23;94707.19;;;28.85;33.71
62697;BME280;48761;42.680;23.312;2022-09-13T09:30:58;94697.53;;;28.83;32.42
62697;BME280;48761;42.680;23.312;2022-09-13T09:33:45;94697.97;;;28.80;32.39
62697;BME280;48761;42.680;23.312;2022-09-13T09:36:29;94689.63;;;28.74;32.27
62697;BME280;48761;42.680;23.312;2022-09-13T09:38:57;94687.97;;;28.73;32.55
62697;BME280;48761;42.680;23.312;2022-09-13T09:41:28;94682.50;;;28.73;34.03
62697;BME280;48761;42.680;23.312;2022-09-13T09:46:36;94682.50;;;28.73;33.23
62697;BME280;48761;42.680;23.312;2022-09-13T09:51:57;94671.56;;;28.73;34.53
62697;BME280;48761;42.680;23.312;2022-09-13T09:54:26;94674.31;;;28.73;34.94
62697;BME280;48761;42.680;23.312;2022-09-13T09:56:53;94669.88;;;28.72;34.05
62697;BME280;48761;42.680;23.312;2022-09-13T09:59:26;94665.00;;;28.74;34.42
62697;BME280;48761;42.680;23.312;2022-09-13T10:01:52;94658.94;;;28.72;34.11
62697;BME280;48761;42.680;23.312;2022-09-13T10:04:20;94666.53;;;28.70;34.11
62697;BME280;48761;42.680;23.312;2022-09-13T10:06:48;94666.53;;;28.70;34.25
62697;BME280;48761;42.680;23.312;2022-09-13T10:11:53;94653.97;;;28.69;36.35
62697;BME280;48761;42.680;23.312;2022-09-13T10:14:38;94656.06;;;28.67;34.72
62697;BME280;48761;42.680;23.312;2022-09-13T10:17:23;94656.06;;;28.67;35.21
62697;BME280;48761;42.680;23.312;2022-09-13T10:19:55;94651.66;;;28.66;34.40
62697;BME280;48761;42.680;23.312;2022-09-13T10:22:21;94650.00;;;28.65;36.43
62697;BME280;48761;42.680;23.312;2022-09-13T10:24:46;94645.59;;;28.64;35.71
62697;BME280;48761;42.680;23.312;2022-09-13T10:27:22;94645.59;;;28.64;36.44
62697;BME280;48761;42.680;23.312;2022-09-13T10:29:51;94634.50;;;28.59;35.79
62697;BME280;48761;42.680;23.312;2022-09-13T10:32:18;94643.53;;;28.59;34.79
62697;BME280;48761;42.680;23.312;2022-09-13T10:34:45;94642.22;;;28.62;34.47
62697;BME280;48761;42.680;23.312;2022-09-13T10:37:17;94643.91;;;28.63;36.52
62697;BME280;48761;42.680;23.312;2022-09-13T10:42:28;94639.75;;;28.60;35.71
62697;BME280;48761;42.680;23.312;2022-09-13T10:49:55;94623.09;;;28.62;35.96
62697;BME280;48761;42.680;23.312;2022-09-13T10:54:49;94609.69;;;28.60;34.35
62697;BME280;48761;42.680;23.312;2022-09-13T10:59:53;94622.50;;;28.60;35.09
62697;BME280;48761;42.680;23.312;2022-09-13T11:08:12;94615.38;;;28.59;37.31
62697;BME280;48761;42.680;23.312;2022-09-13T11:10:59;94607.38;;;28.57;36.63
62697;BME280;48761;42.680;23.312;2022-09-13T11:25:00;94607.03;;;28.53;35.61
62697;BME280;48761;42.680;23.312;2022-09-13T11:27:44;94605.34;;;28.52;36.66
62697;BME280;48761;42.680;23.312;2022-09-13T11:30:18;94596.09;;;28.53;33.97
62697;BME280;48761;42.680;23.312;2022-09-13T11:38:15;94588.75;;;28.54;34.68
62697;BME280;48761;42.680;23.312;2022-09-13T11:52:59;94585.63;;;28.50;33.63
62697;BME280;48761;42.680;23.312;2022-09-13T11:55:32;94590.03;;;28.51;33.21
62697;BME280;48761;42.680;23.312;2022-09-13T11:58:05;94595.25;;;28.53;32.85
62697;BME280;48761;42.680;23.312;2022-09-13T12:00:43;94592.28;;;28.54;33.34
62697;BME280;48761;42.680;23.312;2022-09-13T12:03:20;94588.94;;;28.52;34.14
62697;BME280;48761;42.680;23.312;2022-09-13T12:05:55;94578.94;;;28.46;33.89
62697;BME280;48761;42.680;23.312;2022-09-13T12:08:32;94588.19;;;28.45;33.47
62697;BME280;48761;42.680;23.312;2022-09-13T12:11:03;94581.88;;;28.45;33.08
62697;BME280;48761;42.680;23.312;2022-09-13T12:13:42;94588.78;;;28.47;34.06
62697;BME280;48761;42.680;23.312;2022-09-13T12:16:15;94589.88;;;28.46;32.51
62697;BME280;48761;42.680;23.312;2022-09-13T12:18:45;94586.06;;;28.47;32.64
62697;BME280;48761;42.680;23.312;2022-09-13T12:21:16;94586.06;;;28.47;32.83
62697;BME280;48761;42.680;23.312;2022-09-13T12:23:55;94587.75;;;28.48;32.02
62697;BME280;48761;42.680;23.312;2022-09-13T12:26:39;94582.47;;;28.47;32.58
62697;BME280;48761;42.680;23.312;2022-09-13T12:29:45;94584.41;;;28.46;31.95
62697;BME280;48761;42.680;23.312;2022-09-13T12:32:14;94583.78;;;28.44;32.11
62697;BME280;48761;42.680;23.312;2022-09-13T13:01:21;94580.25;;;28.37;31.92
62697;BME280;48761;42.680;23.312;2022-09-13T13:03:58;94580.25;;;28.37;31.88
62697;BME280;48761;42.680;23.312;2022-09-13T13:06:31;94579.44;;;28.36;32.34
62697;BME280;48761;42.680;23.312;2022-09-13T13:09:21;94578.59;;;28.36;32.75
62697;BME280;48761;42.680;23.312;2022-09-13T13:11:48;94583.91;;;28.30;32.33
62697;BME280;48761;42.680;23.312;2022-09-13T13:16:53;94579.06;;;28.33;33.22
62697;BME280;48761;42.680;23.312;2022-09-13T13:19:32;94586.19;;;28.34;33.35
62697;BME280;48761;42.680;23.312;2022-09-13T13:25:52;94583.66;;;28.32;32.93
62697;BME280;48761;42.680;23.312;2022-09-13T13:33:55;94575.28;;;28.34;33.22
62697;BME280;48761;42.680;23.312;2022-09-13T13:36:25;94584.50;;;28.33;33.38
62697;BME280;48761;42.680;23.312;2022-09-13T13:38:52;94574.03;;;28.29;33.42
62697;BME280;48761;42.680;23.312;2022-09-13T13:44:00;94578.28;;;28.25;33.38
62697;BME280;48761;42.680;23.312;2022-09-13T13:46:29;94590.06;;;28.26;33.72
62697;BME280;48761;42.680;23.312;2022-09-13T13:59:49;94588.00;;;28.21;32.64
62697;BME280;48761;42.680;23.312;2022-09-13T14:02:20;94594.53;;;28.20;32.60
62697;BME280;48761;42.680;23.312;2022-09-13T14:05:04;94591.78;;;28.20;33.02
62697;BME280;48761;42.680;23.312;2022-09-13T14:14:20;94592.22;;;28.17;33.27
62697;BME280;48761;42.680;23.312;2022-09-13T14:22:06;94594.34;;;28.15;33.15
62697;BME280;48761;42.680;23.312;2022-09-13T14:24:36;94591.88;;;28.13;32.89
62697;BME280;48761;42.680;23.312;2022-09-13T14:27:03;94600.91;;;28.14;33.04
62697;BME280;48761;42.680;23.312;2022-09-13T14:29:29;94599.81;;;28.15;33.46
62697;BME280;48761;42.680;23.312;2022-09-13T14:32:04;94605.28;;;28.15;33.60
62697;BME280;48761;42.680;23.312;2022-09-13T14:34:35;94611.81;;;28.14;33.57
62697;BME280;48761;42.680;23.312;2022-09-13T14:37:06;94610.75;;;28.15;33.99
62697;BME280;48761;42.680;23.312;2022-09-13T14:42:20;94600.25;;;28.12;34.27
62697;BME280;48761;42.680;23.312;2022-09-13T14:44:47;94604.28;;;28.09;33.96
62697;BME280;48761;42.680;23.312;2022-09-13T14:50:00;94610.59;;;28.09;33.49
62697;BME280;48761;42.680;23.312;2022-09-13T14:52:42;94601.19;;;28.05;33.60
62697;BME280;48761;42.680;23.312;2022-09-13T14:55:15;94594.88;;;28.05;33.58
62697;BME280;48761;42.680;23.312;2022-09-13T14:57:49;94602.22;;;28.04;33.63
62697;BME280;48761;42.680;23.312;2022-09-13T15:00:19;94596.75;;;28.04;33.84
62697;BME280;48761;42.680;23.312;2022-09-13T15:02:52;94598.28;;;28.00;33.58
62697;BME280;48761;42.680;23.312;2022-09-13T15:05:20;94606.47;;;28.00;33.93
62697;BME280;48761;42.680;23.312;2022-09-13T15:07:47;94615.50;;;28.01;33.96
62697;BME280;48761;42.680;23.312;2022-09-13T15:20:21;94609.66;;;27.97;33.65
62697;BME280;48761;42.680;23.312;2022-09-13T15:22:48;94612.38;;;27.97;33.49
62697;BME280;48761;42.680;23.312;2022-09-13T15:25:32;94610.94;;;27.94;33.44
62697;BME280;48761;42.680;23.312;2022-09-13T15:27:58;94606.31;;;27.95;33.54
62697;BME280;48761;42.680;23.312;2022-09-13T15:30:29;94610.09;;;27.94;33.97
62697;BME280;48761;42.680;23.312;2022-09-13T15:33:14;94606.75;;;27.92;33.99
62697;BME280;48761;42.680;23.312;2022-09-13T15:35:45;94600.69;;;27.90;34.09
62697;BME280;48761;42.680;23.312;2022-09-13T15:38:29;94597.09;;;27.89;34.03
62697;BME280;48761;42.680;23.312;2022-09-13T15:43:28;94604.94;;;27.85;34.33
62697;BME280;48761;42.680;23.312;2022-09-13T15:45:56;94605.13;;;27.84;34.21
62697;BME280;48761;42.680;23.312;2022-09-13T15:48:28;94610.59;;;27.84;34.76
62697;BME280;48761;42.680;23.312;2022-09-13T15:51:10;94609.78;;;27.83;33.42
62697;BME280;48761;42.680;23.312;2022-09-13T15:53:38;94613.56;;;27.82;34.24
62697;BME280;48761;42.680;23.312;2022-09-13T15:56:05;94612.72;;;27.82;34.36
62697;BME280;48761;42.680;23.312;2022-09-13T15:58:32;94621.97;;;27.81;34.00
62697;BME280;48761;42.680;23.312;2022-09-13T16:00:58;94630.38;;;27.79;33.84
62697;BME280;48761;42.680;23.312;2022-09-13T16:03:24;94627.63;;;27.79;33.93
62697;BME280;48761;42.680;23.312;2022-09-13T16:05:50;94627.84;;;27.78;34.56
62697;BME280;48761;42.680;23.312;2022-09-13T16:08:16;94636.22;;;27.76;34.54
62697;BME280;48761;42.680;23.312;2022-09-13T16:10:42;94637.75;;;27.72;34.32
62697;BME280;48761;42.680;23.312;2022-09-13T16:13:08;94639.44;;;27.73;34.69
62697;BME280;48761;42.680;23.312;2022-09-13T16:15:34;94637.97;;;27.70;34.68
62697;BME280;48761;42.680;23.312;2022-09-13T16:18:00;94636.28;;;27.69;34.51
62697;BME280;48761;42.680;23.312;2022-09-13T16:20:26;94643.03;;;27.67;34.44
62697;BME280;48761;42.680;23.312;2022-09-13T16:22:53;94637.81;;;27.65;34.04
62697;BME280;48761;42.680;23.312;2022-09-13T16:25:19;94636.34;;;27.62;34.12
62697;BME280;48761;42.680;23.312;2022-09-13T16:27:45;94636.78;;;27.59;33.91
62697;BME280;48761;42.680;23.312;2022-09-13T16:30:17;94638.91;;;27.57;34.13
62697;BME280;48761;42.680;23.312;2022-09-13T16:32:43;94636.38;;;27.56;34.22